Greyhound Lines for Cbj Remington

Cbj Remington (Littermates)
Dk BdF7/25/2015IRUSKA ALL STAR - CBJ CHOC O LAT
Owned by carmen j inc and runs for the Falcon Kennel

Print Chart

Track Race Date Dist.   Track
Cond
Wt. Post Off Call1 Bye1 Call2 Bye2 Fin. Fin.
Bye
  Fav. Odds Grd Comments
OP 5/6/2019E-04 550 30.87 F 62 1 4 7 7 7 21 32.35 7.70 B Bumped 1st Tn Mdtrk
OP 5/3/2019E-04 550 30.78 F 62 8 8 8 7 7 11.5 31.59 4.40 B Varied Little Mdtrk
OP 4/29/2019E-12 550 30.77 F 61.5 3 1 6 7 6 13 31.69 9.90 B Early Bid, Outgamed
OP 4/26/2019E-04 550 30.57 F 62 5 1 3 3 3 10.5 31.32 5.50 B Erly Bid, Gave Chase
OP 4/20/2019E-15 550 30.61 F 62 7 1 2 2 2 6 31.02 8.80 B Strong Bid Midtrack
OP 4/17/2019E-02 550 30.84 F 62 6 1 6 7 7 7.5 31.38 19.90 B Early Bid, Outgamed
OP 4/13/2019E-04 550 30.79 F 62 8 3 7 7 7 9 31.43 18.80 A Early Try, Faded Mid
OP 4/10/2019E-07 550 31.06 F 62.5 6 4 7 8 8 7 31.56 24.40 A Outgamed Early Mdtrk
OP 4/6/2019A-11 550 30.54 F 62 3 1 3 5 6 11 31.32 25.50 A Early Bid, Outgamed
OP 4/3/2019A-07 550 31.00 F 62.5 8 2 1 2 1 1 1 1.5 31.00 3.70 B Secured Victory Mid
OP 3/30/2019A-07 550 30.77 F 62.5 2 6 5 5 6 9.5 31.45 7.70 A Honest Effort Mdtrk
OP 3/27/2019A-11 550 30.65 F 62.5 2 1 7 7 7 22.5 32.23 13.50 A Bumped 1st Tn Inside
OP 3/22/2019E-10 550 30.32 F 62 8 4 4 4 4 10 31.03 11.50 A Evenly Midtrack
OP 3/18/2019E-07 550 31.15 F 62 4 1 1 1 2 2 2.5 31.34 15.50 A Caught Midtrack
OP 3/15/2019E-12 550 31.40 F 62 4 1 1 1 3 1 1 31.40 4.20 B Determined Winner Mt
OP 3/10/2019A-13 550 30.69 F 62 8 1 1 3 1 2.5 1 4.5 30.69 * 2.40 C Beat The Box Mdtrk
OP 3/6/2019E-13 550 31.04 F 61 7 1 1 4 1 5 1 5 31.04 2.70 D Box To Wire Midtrack
OP 3/2/2019E-01 550 31.07 F 62 2 2 2 4 4 13.5 32.03 * 2.70 D In The Mix Midtrack
OP 2/27/2019A-12 550 30.99 F 61.5 4 3 6 4 3 5.5 31.39 3.10 D Bumped At Break Mid
OP 2/22/2019E-13 550 30.82 F 61 5 3 4 4 4 4 31.10 11.30 C Evenly Midtrack
OP 2/18/2019E-08 550 31.33 F 61 5 6 7 7 7 3.5 31.56 5.50 C No Gain Midtrack
OP 2/14/2019E-13 550 31.41 F 62 6 7 4 5 8 7.5 31.94 5.50 C Bmpd Twc Erly Mdtrk
OP 2/9/2019E-13 550 30.97 F 61 8 2 3 2 2 5.5 31.36 6.20 C Ran After Winner Mt
OP 2/6/2019E-08 550 31.05 F 61.5 1 1 5 5 6 9 31.67 5.50 C Led Early, Outrushed
OP 2/2/2019A-13 550 30.97 F 61 4 1 5 5 5 7 31.46 9.70 C Early Bid, Faded Mid
OP 1/28/2019E-11 550 30.81 F 61 6 4 7 7 7 14 31.80 13.20 B Early Try, Outgamed
OP 1/25/2019E-10 550 30.67 F 61.5 2 8 7 8 8 22 32.20 11.50 B Bumped 1st Tn Mdtrk
OP 1/21/2019E-12 550 31.14 F 61 6 5 6 6 7 10.5 31.88 12.50 B Collided Early Mdtrk
OP 1/18/2019E-12 550 30.80 F 62 8 3 2 3 3 5 31.16 16.40 B Good Try Midtrack
OP 1/13/2019A-11 550 30.39 F 62 1 1 6 7 7 13.5 31.33 13.50 A First To Last Mdtrk
OP 1/9/2019E-11 550 30.52 F 62 2 1 2 3 6 10.5 31.26 10.50 A Factor Till Far Turn
OP 1/5/2019E-11 550 30.78 F 62 8 8 7 7 7 11.5 31.58 10.70 A Varied Little Mdtrk
OP 1/2/2019A-11 550 30.97 F 62 4 1 2 3 3 1.5 31.08 25.60 A Always In It Mdtrk
OP 12/29/2018A-09 550 31.19 F 61 8 1 3 1 1 1 2 31.19 6.10 B Recaptured Lead Mid
OP 12/26/2018A-09 550 31.07 F 61.5 5 1 7 7 6 13.5 32.01 5.40 B Bumped 1st Tn Mdtrk
OP 12/21/2018E-07 550 30.93 F 61 3 4 8 8 8 10.5 31.67 16.40 A Early Try, Otrshd Mt
OP 12/17/2018E-07 550 30.93 F 62 1 1 2 4 4 5.5 31.31 6.30 A Erly Bid, Faded Mdtk
OP 12/14/2018E-07 550 31.35 S 61 2 5 8 8 8 9.5 32.01 4.50 A Failed To Figure Mid
OP 12/10/2018E-12 550 30.95 F 61 7 1 3 3 3 8.5 31.54 15.30 A Bumped 1st Tn Mdtrk
OP 12/7/2018E-07 550 30.71 F 61 5 1 3 3 3 3.5 30.97 24.20 A Erly Bid, Gave Chase
OP 12/3/2018E-10 550 30.62 F 61 2 2 6 6 7 OOP 12.60 A Bumped Far Tn Mdtrk
OP 11/30/2018E-04 550 31.20 F 61.5 6 1 2 1 1 1 2.5 31.20 7.40 B Cruised Away Mdtrk
OP 11/26/2018E-12 550 31.06 F 61.5 2 4 5 5 3 6 31.48 4.50 B Came Again Midtrack
OP 11/23/2018A-05 550 31.33 F 61.5 2 1 1 1 1 2 1 4.5 31.33 * 1.90 C Led The Whole Way Mt
OP 11/17/2018E-13 550 30.76 F 62 2 1 2 2 2 2.5 30.92 3.10 C Chased Winner Mdtrk
OP 11/14/2018E-07 550 30.41 F 61.5 7 6 6 5 4 15 31.46 11.30 B Bumped 1st Tn Mdtrk
OP 11/10/2018E-04 550 31.23 F 61.5 4 2 7 6 7 4.5 31.55 5.10 B Bumped 1st Tn Mdtrk
OP 11/7/2018E-02 550 30.91 F 62 6 4 8 7 7 13.5 31.84 * 2.50 B Bumped 1st Tn Outs
OP 11/3/2018A-07 550 31.10 F 62.5 5 5 7 7 6 8.5 31.69 14.50 A Bumped 1st Tn Mdtrk
OP 10/31/2018A-07 550 30.77 F 62 1 4 7 7 7 12.5 31.65 6.50 A Bmpd 1st Tn Midtrack
OP 10/27/2018A-11 550 30.48 F 62.5 3 2 3 3 3 7.5 30.99 11.30 A Always Trying Mdtrk
OP 10/24/2018A-07 550 30.97 F 62.5 8 7 7 8 8 10 31.66 1.50 A Bmpd 1st Tn Midtrack
OP 10/20/2018E-11 550 31.14 F 61 4 5 6 4 3 4 31.41 4.30 A Good Try Midtrack
OP 10/17/2018A-11 550 30.57 F 61 5 2 3 3 3 7 31.05 12.50 A Solid Bid Midtrack
OP 10/13/2018A-15 550 30.78 F 62 2 1 1 .5 1 .5 1 2 30.78 3.40 B All The Way Midtrack
OP 10/10/2018E-07 550 30.97 F 61.5 2 7 4 4 4 3.5 31.22 21.50 A Offstrdd 1st Tn Mid
OP 10/6/2018E-07 550 31.21 F 62.5 3 5 6 6 6 6 31.62 3.90 A Bmpd 1st Tn Mdtrk
OP 10/3/2018E-07 550 31.27 F 62 3 1 8 8 8 10 31.98 * 3.10 A Offstrdd & Bmpd 1st
OP 9/29/2018E-11 550 30.99 F 62.5 7 1 2 2 1 hd 30.99 4.20 A Came Again For Win
OP 9/26/2018A-11 550 30.66 F 62.5 6 5 2 2 2 2.5 30.84 5.10 A Hard Try Midtrack
OP 9/22/2018A-07 550 30.56 F 62.5 3 1 2 2 2 6.5 31.01 5.00 A Led Early, Chased Mt
OP 9/19/2018A-11 550 30.94 F 62.5 6 1 2 2 1 nk 30.94 17.60 A Fired Bk To The Lead
OP 9/15/2018A-11 550 30.65 F 62.5 8 5 4 4 4 10.5 31.38 4.10 A Blocked 1st Turn Mid
OP 9/12/2018A-11 550 30.91 F 62 6 6 4 5 5 4.5 31.22 4.60 A Erly Try, Wknd Mdtrk
OP 9/8/2018A-11 550 30.74 F 62 7 2 1 1.5 1 1 1 3 30.74 9.90 A Drew Away Mdtrk
OP 9/5/2018A-07 550 30.95 F 62 6 4 5 5 5 8 31.51 10.20 A Bmpd 1st Tn Midtrack
OP 9/1/2018A-07 550 30.96 F 62 3 1 5 6 6 7.5 31.48 7.50 A Early Speed Outside
OP 8/29/2018A-15 550 30.80 F 60.5 1 1 1 1.5 1 8 1 11.5 30.80 4.40 B As She Pleased Mid
OP 8/24/2018E-04 550 31.28 F 61 2 1 7 6 6 7.5 31.81 * 1.50 B Jammed 1st Tn Outs
OP 8/19/2018A-13 550 30.75 F 62 6 1 1 2 1 2 1 3 30.75 3.80 C All The Way Midtrack
OP 8/16/2018E-08 550 31.36 F 61 7 4 7 6 5 4.5 31.66 3.20 C Bmpd 1st Tn Midtrack
OP 8/12/2018A-05 550 31.18 F 62 4 5 8 8 8 7.5 31.72 * 2.60 C Bumped, Wide 1st Tn
OP 8/9/2018E-05 550 31.02 F 61 6 3 2 2 2 1.5 31.12 4.00 C Bmpd, Tried Hard Mid
OP 8/4/2018E-12 550 30.84 F 62 3 6 6 4 4 5.5 31.23 5.00 B Jammed Early Mdtrk
OP 8/1/2018E-04 550 31.29 F 62.5 1 7 8 7 7 10.5 32.01 3.00 B Ran Into Rival 1st
OP 7/28/2018A-15 550 30.46 F 62.5 6 4 3 3 3 10 31.16 7.50 B Bumped Late 1st Mid
OP 7/25/2018A-04 550 31.04 F 62 3 2 8 7 7 15.5 32.11 5.00 B Pinched Back 1st Tn
OP 7/20/2018E-04 550 30.99 F 62 4 2 8 8 8 7.5 31.53 11.40 SA Erly Try, Outgamed
OP 7/16/2018E-12 550 30.72 F 61.5 4 3 6 5 4 9.5 31.38 9.00 SA Shutoff 1st Turn Mid
OP 7/13/2018E-07 550 30.67 F 61.5 8 4 3 7 7 7 31.16 4.60 A Bumped Late Midtrack
OP 7/8/2018A-11 550 30.97 F 62.5 5 2 2 1 2 1 4 30.97 3.20 A Pulling Away Mdtrk
OP 6/29/2018E-07 550 30.80 F 61 7 2 2 2 2 ns 30.81 6.30 A Huge Threat Mdtrk
OP 6/25/2018E-12 550 30.91 F 61.5 3 2 4 5 6 6 31.32 5.00 A Bumped Late Mdtrk
OP 6/22/2018E-10 550 30.72 F 61 3 1 3 2 2 nk 30.75 8.40 A Bmpd 1st Tn Midtrack
OP 6/18/2018E-11 550 30.95 F 61 4 7 5 5 4 3.5 31.19 18.50 A Gained After Jam Mid
OP 6/14/2018E-11 550 30.91 F 61.5 5 1 1 2 1 1 2 1 30.98 14.40 A Caught At Wire Mdtrk
OP 6/10/2018A-11 550 30.96 F 61.5 3 6 6 6 6 11 31.73 16.00 A Bumped 1st Turn Mid
OP 6/7/2018E-11 550 30.67 F 61 2 1 2 2 2 1.5 30.76 17.00 A Led Early, Chased Mt
OP 6/2/2018E-12 550 31.10 S 60.5 7 2 2 1 3 1 2.5 31.10 * 3.00 B Late Control Rail
OP 5/30/2018A-07 550 31.32 F 61.5 8 3 4 4 5 2.5 31.50 5.00 B Bumped 1st Turn Mid
OP 5/26/2018A-13 550 30.66 F 62 4 2 2 1 1 1 4 30.66 * 2.80 C Pulled Away Late Mid
OP 5/23/2018A-07 550 30.88 F 62 1 1 3 5 5 9 31.50 4.00 B Early Speed Midtrack
OP 5/19/2018A-15 550 30.96 F 62.5 6 3 3 3 3 2.5 31.14 7.00 B Had Early Lead Mdtrk
OP 5/16/2018A-09 550 31.01 F 62.5 4 6 5 5 4 4.5 31.31 7.60 B Gaining Ground Mdtrk
OP 5/12/2018A-07 550 30.84 F 62 3 3 5 5 5 4 31.11 8.00 B Bumped 1st Turn Mid
OP 5/9/2018A-07 550 30.91 F 61.5 7 4 4 3 3 7.5 31.42 * 1.20 B Even Effort Midtrack
OP 5/5/2018A-15 550 30.70 F 61 5 2 4 4 3 6.5 31.17 5.00 B Decent Effort Mdtrk
OP 5/2/2018A-08 550 30.93 F 61.5 8 2 1 3 1 3 1 1.5 30.93 3.60 C Took Charge Early Mt
OP 4/28/2018A-12 550 30.64 F 61.5 3 1 1 3 1 4 1 4.5 30.64 4.30 D Quick Control Mdtrk
OP 4/22/2018A-12 550 31.08 F 61 4 4 5 7 7 15.5 32.16 4.00 D Bumped, Wide 1st Tn
OP 4/18/2018A-06 550 30.85 F 61.5 6 6 5 3 3 3.5 31.08 3.00 D Gained After Jam Mid
OP 4/12/2018E-06 550 31.16 F 61 4 2 2 2 2 2 31.30 5.00 D In Pursuit Midtrack
OP 4/7/2018A-13 550 31.05 F 61.5 1 3 7 8 8 6.5 31.50 11.00 C Shutoff 1st Turn Out
OP 4/4/2018A-05 550 30.72 F 61.5 6 2 4 5 5 7 31.21 10.10 C Weakened Late Outsd
OP 3/29/2018E-08 550 31.17 F 60.5 2 6 7 6 6 6.5 31.63 3.50 C No Real Threat Mdtrk
OP 3/24/2018E-06 550 31.44 F 60.5 3 2 1 2 1 1 1 .5 31.44 7.10 D Held Off Rival Mdtrk
OP 3/18/2018A-02 550 31.37 F 61 5 7 8 8 7 12.5 32.25 5.30 C Trouble Twice
OP 3/14/2018E-08 550 31.38 F 61 2 1 6 7 7 9 32.02 6.00 C Cutoff 1st Turn Outs
OP 3/10/2018A-13 550 31.20 F 61.5 5 3 5 6 6 11 31.98 9.00 C Bumped 1st Turn Outs
OP 3/5/2018E-02 550 31.33 F 62 3 1 1 ns 2 2 1.5 31.43 9.50 C Strong Bid Midtrack
OP 3/1/2018S-11 550 31.61 F 62 2 1 1 2 1 2 1 .5 31.61 ----- Scl Determined Winner Mt
OP 2/26/2018S-01 550 31.31 F 62 4 8 6 6 6 7.5 31.83 ----- Scl Off Slowly Midtrack
OP 2/21/2018E-09 660 38.08 F 61.5 5 6 2 8 8 24 39.75 20.20 B Out Of Gas
OP 2/17/2018E-11 660 38.29 F 62 8 1 1 8 8 12 39.14 10.10 B Rapid Retreat Late
OP 2/11/2018A-15 550 31.15 F 62 1 7 6 8 8 14.5 32.17 8.00 B Jammed Far Turn
OP 2/8/2018S-01 550 31.47 F 61 5 1 1 2 2 3 5 31.81 ----- Scl Speed Till Late Mid
OP 2/5/2018S-01 550 31.77 F 61 7 3 2 6 6 10.5 32.52 ----- Scl Contact 1st, Faded
OP 9/8/2017A-15 660 37.32 F 60.5 6 4 4 3 4 10 38.02 13.30 A Even Effort Midtrack
OP 9/2/2017E-15 660 37.77 F 60.5 6 6 6 7 7 10 38.48 11.50 A No Space At Break Mt
OP 8/28/2017E-15 660 37.95 F 60.5 5 4 5 6 6 7.5 38.49 9.00 A No Mishaps Midtrack
OP 8/23/2017E-15 660 37.89 F 60.5 1 1 1 2.5 1 2 1 1 37.89 * 2.70 B Held On To Win Mdtrk
OP 8/19/2017E-09 660 38.02 F 61 8 8 6 7 7 6.5 38.46 3.70 B Not A Factor Mdtrk
OP 8/16/2017E-15 660 37.77 F 60 7 1 2 2 4 3.5 38.00 6.00 A Early Pacesetter Mid
OP 8/9/2017E-09 660 38.24 F 60.5 7 3 4 5 7 5 38.59 6.00 A Drifted Back Mdtrk
OP 8/5/2017E-15 660 37.94 F 61 7 3 4 3 5 9.5 38.60 13.00 A Bumped Early Mdtrk
OP 7/29/2017E-15 660 38.00 F 60 5 2 2 2 2 3 38.21 12.20 A Chased Winner Mdtrk
OP 7/22/2017E-15 660 37.70 F 60 3 7 7 7 7 10 38.41 12.20 A Some Early Trouble
OP 7/19/2017E-09 660 37.65 F 60 3 1 1 5 1 5 1 4.5 37.65 3.20 B Easily Midtrack
OP 7/15/2017E-09 660 37.64 F 59 8 2 2 2 2 2.5 37.81 15.50 B Chased Winner Mdtrk
OP 7/10/2017E-09 660 38.16 S 60 7 1 4 5 6 11.5 38.95 4.10 B Early Bid, Cutoff Mt
OP 7/7/2017E-11 660 37.64 F 60 3 1 1 3 1 1.5 1 ns 37.64 14.90 C Saved By The Wire In
OP 7/1/2017E-14 660 38.06 F 60 7 2 2 2 1 3.5 38.06 11.90 D Found Late Foot Mid
OP 6/26/2017E-09 660 38.25 F 60.5 6 5 3 3 3 6.5 38.69 19.90 D Held Position Mdtrk
OP 6/21/2017E-14 660 38.04 F 60 8 3 2 2 5 3.5 38.30 6.30 D Outrushed Late Insd
OP 6/17/2017E-02 550 31.40 S 59.5 3 2 6 7 5 10.5 32.13 7.40 D Bmpd 1st Tn Midtrack
OP 6/14/2017A-10 550 30.80 F 60 4 5 6 7 7 8 31.35 8.10 D Never Figured Mdtrk
OP 6/9/2017E-14 550 30.79 F 60 8 4 3 3 3 2.5 30.98 8.50 D Solid Bid Midtrack
OP 6/4/2017A-14 550 30.66 F 60 4 5 6 5 5 7.5 31.19 15.50 D Blocked 1st Tn Outsd
OP 6/1/2017S-11 550 31.52 F 59 6 7 6 4 3 3 31.73 ----- Scl Blocked Early Outsd
OP 5/21/2017A-04 550 31.17 F 59 3 6 4 5 6 7 31.66 12.30 D Bmpd Brk, Pushed Wd
OP 5/17/2017E-03 550 30.96 F 59.5 3 7 7 7 7 10.5 31.70 8.50 D Shutoff 1st Tn Outsd
OP 5/13/2017A-14 550 30.66 F 60 6 4 7 6 6 11.5 31.46 17.60 D Crwdd, Went To Outsd
OP 5/7/2017A-14 550 31.26 F 60 5 3 7 6 6 7.5 31.79 6.20 D Bumped Erly Midtrack
MG 4/29/2017A-09 550 31.46 F 60 6 4 3 3 3 1 31.53 3.00 TD Followed Pace Mdtrk
MG 4/25/2017A-04 550 30.85 F 60.5 8 1 3 3 3 2 30.99 * 2.00 D Followed Pace Mdtrk
MG 4/22/2017E-06 550 31.69 F 60.5 5 6 4 4 4 1.5 31.81 2.00 D Bumped 1st Outside
MG 4/18/2017E-04 550 31.08 F 60.5 2 2 3 2 2 1.5 31.19 4.00 D Good Effort Midtrack
MG 4/14/2017A-04 550 31.50 F 60.5 7 6 4 2 1 2 31.50 3.90 M Fast Finish Midtrk
MG 4/10/2017A-04 550 30.91 F 60 2 4 3 2 2 4.5 31.21 34.00 TM Chased Winner Outsd
MG 4/6/2017A-04 550 31.06 F 60 4 2 7 6 4 11 31.82 13.00 M Cutoff 1st Outside
MG 4/1/2017A-02 550 30.86 F 60 4 5 8 8 8 17 32.05 25.00 M Jammed 1st Outside
MG 3/28/2017E-02 550 30.99 F 60 4 6 7 7 7 17.5 32.22 20.00 TM Bumped 1st Outside
MG 3/24/2017A-08 550 31.45 F 60 1 2 1 .25 2 4 4.5 31.76 15.00 M Faded Bk Lt Mdtrack
MG 3/20/2017A-02 550 31.40 F 60 3 7 6 6 6 16.5 32.55 20.00 TM Bumped 1st Mdtrack
MG 3/16/2017A-02 550 30.87 F 60 1 1 5 5 6 16.5 32.01 2.50 TM Lost Ground Mdtrack
<< Race Replays 10/20 >>
S
M
T
W
T
F
S
1 2 3
4 5 6 7 8 9 10
11 12 13 14 15 16 17
18 19 20 21 22 23 24
25 26 27 28 29 30 31